Magic Kingdom, Florida
Current Conditions -  °F | °C
As of 11:50 AM on Sunday 23 Nov 2014 (Local Time) from KISM Reporting Station
Broken Clouds Broken Clouds  
Wind Chill: 81°   Ceiling: 2000
Heat Index: 85°   Visibility: 10mi
Dew Point: 72°   Wind: 18mph
Humidity: 74%   Direction: 160°SSE
Pressure: 29.99"   Gusts: 25mph
Location:  28.42°N, 81.58°W
Report Text: KISM 231650Z 16016G22KT 10SM BKN020 27/22 A2999
Loading
Personal Weather Stations






























Interactive Weather Map New forecast layout! Learn more

10-Day Weather Forecast

Advertisements
Track Severe Weather on mobile